sensor_id;sensor_type;location;lat;lon;timestamp;P1;durP1;ratioP1;P2;durP2;ratioP2
72479;SDS011;60503;43.540;-5.510;2022-08-21T11:42:50;8.65;;;2.78;;
72479;SDS011;60503;43.540;-5.510;2022-08-21T11:45:37;4.72;;;2.47;;
72479;SDS011;60503;43.540;-5.510;2022-08-21T11:51:34;7.15;;;2.90;;
72479;SDS011;60503;43.540;-5.510;2022-08-21T11:56:46;5.43;;;2.40;;
72479;SDS011;60503;43.540;-5.510;2022-08-21T12:02:21;5.50;;;1.90;;
72479;SDS011;60503;43.540;-5.510;2022-08-21T12:04:52;3.97;;;1.70;;
72479;SDS011;60503;43.540;-5.510;2022-08-21T12:07:37;5.45;;;2.00;;
72479;SDS011;60503;43.540;-5.510;2022-08-21T12:10:11;5.80;;;1.85;;
72479;SDS011;60503;43.540;-5.510;2022-08-21T12:12:41;5.38;;;1.80;;
72479;SDS011;60503;43.540;-5.510;2022-08-21T12:17:40;6.63;;;2.42;;
72479;SDS011;60503;43.540;-5.510;2022-08-21T12:20:17;4.97;;;2.00;;
72479;SDS011;60503;43.540;-5.510;2022-08-21T12:22:52;4.03;;;1.88;;
72479;SDS011;60503;43.540;-5.510;2022-08-21T12:25:19;8.43;;;2.40;;
72479;SDS011;60503;43.540;-5.510;2022-08-21T12:27:47;4.65;;;3.10;;
72479;SDS011;60503;43.540;-5.510;2022-08-21T12:30:21;10.05;;;3.17;;
72479;SDS011;60503;43.540;-5.510;2022-08-21T12:33:38;7.82;;;2.88;;
72479;SDS011;60503;43.540;-5.510;2022-08-21T12:36:02;6.63;;;2.50;;
72479;SDS011;60503;43.540;-5.510;2022-08-21T12:38:39;5.50;;;2.10;;
72479;SDS011;60503;43.540;-5.510;2022-08-21T12:41:32;8.80;;;2.60;;
72479;SDS011;60503;43.540;-5.510;2022-08-21T12:44:08;5.72;;;2.00;;
72479;SDS011;60503;43.540;-5.510;2022-08-21T12:46:37;5.07;;;2.10;;
72479;SDS011;60503;43.540;-5.510;2022-08-21T12:49:14;7.47;;;2.33;;
72479;SDS011;60503;43.540;-5.510;2022-08-21T12:54:21;7.30;;;2.20;;
72479;SDS011;60503;43.540;-5.510;2022-08-21T12:56:58;6.50;;;2.70;;
72479;SDS011;60503;43.540;-5.510;2022-08-21T12:59:25;6.05;;;2.03;;
72479;SDS011;60503;43.540;-5.510;2022-08-21T13:01:52;6.28;;;2.58;;
72479;SDS011;60503;43.540;-5.510;2022-08-21T13:04:21;8.75;;;2.90;;
72479;SDS011;60503;43.540;-5.510;2022-08-21T13:06:50;9.70;;;2.58;;
72479;SDS011;60503;43.540;-5.510;2022-08-21T13:09:19;9.45;;;2.58;;
72479;SDS011;60503;43.540;-5.510;2022-08-21T13:11:49;6.20;;;2.20;;
72479;SDS011;60503;43.540;-5.510;2022-08-21T13:14:35;6.10;;;2.65;;
72479;SDS011;60503;43.540;-5.510;2022-08-21T13:17:03;8.00;;;2.10;;
72479;SDS011;60503;43.540;-5.510;2022-08-21T13:19:29;7.22;;;2.10;;
72479;SDS011;60503;43.540;-5.510;2022-08-21T13:21:56;7.93;;;2.30;;
72479;SDS011;60503;43.540;-5.510;2022-08-21T13:24:30;6.55;;;1.85;;
72479;SDS011;60503;43.540;-5.510;2022-08-21T13:26:58;12.32;;;2.30;;
72479;SDS011;60503;43.540;-5.510;2022-08-21T13:29:28;9.55;;;3.00;;
72479;SDS011;60503;43.540;-5.510;2022-08-21T13:31:59;6.25;;;2.22;;
72479;SDS011;60503;43.540;-5.510;2022-08-21T13:34:29;11.18;;;2.85;;
72479;SDS011;60503;43.540;-5.510;2022-08-21T13:36:57;5.40;;;2.20;;
72479;SDS011;60503;43.540;-5.510;2022-08-21T13:39:25;9.32;;;2.78;;
72479;SDS011;60503;43.540;-5.510;2022-08-21T13:45:14;9.35;;;2.65;;
72479;SDS011;60503;43.540;-5.510;2022-08-21T13:50:18;7.47;;;2.22;;
72479;SDS011;60503;43.540;-5.510;2022-08-21T13:52:47;8.48;;;2.90;;
72479;SDS011;60503;43.540;-5.510;2022-08-21T13:55:40;8.43;;;2.72;;
72479;SDS011;60503;43.540;-5.510;2022-08-21T13:58:08;6.90;;;2.78;;
72479;SDS011;60503;43.540;-5.510;2022-08-21T14:00:35;7.95;;;3.28;;
72479;SDS011;60503;43.540;-5.510;2022-08-21T14:03:14;5.45;;;2.65;;
72479;SDS011;60503;43.540;-5.510;2022-08-21T14:05:55;6.20;;;2.97;;
72479;SDS011;60503;43.540;-5.510;2022-08-21T14:08:29;8.05;;;2.70;;
72479;SDS011;60503;43.540;-5.510;2022-08-21T14:10:57;8.68;;;2.75;;
72479;SDS011;60503;43.540;-5.510;2022-08-21T14:13:44;6.07;;;2.78;;
72479;SDS011;60503;43.540;-5.510;2022-08-21T14:16:17;9.63;;;2.65;;
72479;SDS011;60503;43.540;-5.510;2022-08-21T14:21:11;10.68;;;2.58;;
72479;SDS011;60503;43.540;-5.510;2022-08-21T14:23:38;4.38;;;2.42;;
72479;SDS011;60503;43.540;-5.510;2022-08-21T14:26:04;5.68;;;2.42;;
72479;SDS011;60503;43.540;-5.510;2022-08-21T14:28:38;6.40;;;2.58;;
72479;SDS011;60503;43.540;-5.510;2022-08-21T14:31:15;5.40;;;2.10;;
72479;SDS011;60503;43.540;-5.510;2022-08-21T14:33:43;5.05;;;2.10;;
72479;SDS011;60503;43.540;-5.510;2022-08-21T14:36:09;6.60;;;2.67;;
72479;SDS011;60503;43.540;-5.510;2022-08-21T14:38:36;5.07;;;2.10;;
72479;SDS011;60503;43.540;-5.510;2022-08-21T14:41:08;2.97;;;2.33;;
72479;SDS011;60503;43.540;-5.510;2022-08-21T14:43:50;4.05;;;2.35;;
72479;SDS011;60503;43.540;-5.510;2022-08-21T14:46:23;3.80;;;2.17;;
72479;SDS011;60503;43.540;-5.510;2022-08-21T14:48:51;7.20;;;2.25;;
72479;SDS011;60503;43.540;-5.510;2022-08-21T14:51:17;3.05;;;2.10;;
72479;SDS011;60503;43.540;-5.510;2022-08-21T14:53:43;5.75;;;2.35;;
72479;SDS011;60503;43.540;-5.510;2022-08-21T14:56:09;4.50;;;2.53;;
72479;SDS011;60503;43.540;-5.510;2022-08-21T14:58:37;4.50;;;2.35;;
72479;SDS011;60503;43.540;-5.510;2022-08-21T15:01:04;4.68;;;2.33;;
72479;SDS011;60503;43.540;-5.510;2022-08-21T15:03:31;3.55;;;2.15;;
72479;SDS011;60503;43.540;-5.510;2022-08-21T15:05:57;4.18;;;2.33;;
72479;SDS011;60503;43.540;-5.510;2022-08-21T15:08:23;4.47;;;2.15;;
72479;SDS011;60503;43.540;-5.510;2022-08-21T15:10:48;7.35;;;2.53;;
72479;SDS011;60503;43.540;-5.510;2022-08-21T15:13:17;4.65;;;2.40;;
72479;SDS011;60503;43.540;-5.510;2022-08-21T15:15:44;4.80;;;2.25;;
72479;SDS011;60503;43.540;-5.510;2022-08-21T15:18:10;3.08;;;2.13;;
72479;SDS011;60503;43.540;-5.510;2022-08-21T15:20:36;4.93;;;2.10;;
72479;SDS011;60503;43.540;-5.510;2022-08-21T15:23:03;2.65;;;2.08;;
72479;SDS011;60503;43.540;-5.510;2022-08-21T15:25:29;6.22;;;2.25;;
72479;SDS011;60503;43.540;-5.510;2022-08-21T15:27:55;5.60;;;2.15;;
72479;SDS011;60503;43.540;-5.510;2022-08-21T15:30:21;4.90;;;2.10;;
72479;SDS011;60503;43.540;-5.510;2022-08-21T15:32:47;3.63;;;1.90;;
72479;SDS011;60503;43.540;-5.510;2022-08-21T15:35:12;5.30;;;2.08;;
72479;SDS011;60503;43.540;-5.510;2022-08-21T15:37:38;2.47;;;1.90;;
72479;SDS011;60503;43.540;-5.510;2022-08-21T15:49:24;4.30;;;2.15;;
72479;SDS011;60503;43.540;-5.510;2022-08-21T15:51:50;5.45;;;2.47;;
72479;SDS011;60503;43.540;-5.510;2022-08-21T15:54:16;6.50;;;2.72;;
72479;SDS011;60503;43.540;-5.510;2022-08-21T15:56:42;4.68;;;2.50;;
72479;SDS011;60503;43.540;-5.510;2022-08-21T15:59:15;5.97;;;2.90;;
72479;SDS011;60503;43.540;-5.510;2022-08-21T16:01:43;4.55;;;2.33;;
72479;SDS011;60503;43.540;-5.510;2022-08-21T16:04:09;4.40;;;2.50;;
72479;SDS011;60503;43.540;-5.510;2022-08-21T16:06:35;3.85;;;2.30;;
72479;SDS011;60503;43.540;-5.510;2022-08-21T16:09:01;4.07;;;2.45;;
72479;SDS011;60503;43.540;-5.510;2022-08-21T16:11:26;4.47;;;2.45;;
72479;SDS011;60503;43.540;-5.510;2022-08-21T16:13:53;5.00;;;2.72;;
72479;SDS011;60503;43.540;-5.510;2022-08-21T16:16:20;6.85;;;2.88;;
72479;SDS011;60503;43.540;-5.510;2022-08-21T16:18:47;5.63;;;2.67;;
72479;SDS011;60503;43.540;-5.510;2022-08-21T16:21:13;4.72;;;2.53;;
72479;SDS011;60503;43.540;-5.510;2022-08-21T16:23:39;5.57;;;2.90;;
72479;SDS011;60503;43.540;-5.510;2022-08-21T16:26:05;5.53;;;2.55;;
72479;SDS011;60503;43.540;-5.510;2022-08-21T16:28:33;4.07;;;2.50;;
72479;SDS011;60503;43.540;-5.510;2022-08-21T16:31:00;6.40;;;2.90;;
72479;SDS011;60503;43.540;-5.510;2022-08-21T16:33:27;3.90;;;2.50;;
72479;SDS011;60503;43.540;-5.510;2022-08-21T16:35:56;4.15;;;2.65;;
72479;SDS011;60503;43.540;-5.510;2022-08-21T16:38:22;4.03;;;2.42;;
72479;SDS011;60503;43.540;-5.510;2022-08-21T16:40:48;4.30;;;2.53;;
72479;SDS011;60503;43.540;-5.510;2022-08-21T16:43:13;3.55;;;2.22;;
72479;SDS011;60503;43.540;-5.510;2022-08-21T16:45:39;3.60;;;2.20;;
72479;SDS011;60503;43.540;-5.510;2022-08-21T16:48:05;4.80;;;2.97;;
72479;SDS011;60503;43.540;-5.510;2022-08-21T16:50:34;6.10;;;2.58;;
72479;SDS011;60503;43.540;-5.510;2022-08-21T16:53:00;3.42;;;2.40;;
72479;SDS011;60503;43.540;-5.510;2022-08-21T16:55:26;6.10;;;2.50;;
72479;SDS011;60503;43.540;-5.510;2022-08-21T16:57:52;5.63;;;2.45;;
72479;SDS011;60503;43.540;-5.510;2022-08-21T17:00:19;5.40;;;2.70;;
72479;SDS011;60503;43.540;-5.510;2022-08-21T17:02:48;5.57;;;2.67;;
72479;SDS011;60503;43.540;-5.510;2022-08-21T17:05:15;4.90;;;2.78;;
72479;SDS011;60503;43.540;-5.510;2022-08-21T17:07:41;4.63;;;2.35;;
72479;SDS011;60503;43.540;-5.510;2022-08-21T17:10:08;3.95;;;2.47;;
72479;SDS011;60503;43.540;-5.510;2022-08-21T17:12:36;3.75;;;2.50;;
72479;SDS011;60503;43.540;-5.510;2022-08-21T17:15:05;3.83;;;2.30;;
72479;SDS011;60503;43.540;-5.510;2022-08-21T17:17:34;3.00;;;2.50;;
72479;SDS011;60503;43.540;-5.510;2022-08-21T17:19:59;5.88;;;2.80;;
72479;SDS011;60503;43.540;-5.510;2022-08-21T17:22:25;4.28;;;2.60;;
72479;SDS011;60503;43.540;-5.510;2022-08-21T17:24:51;7.35;;;3.00;;
72479;SDS011;60503;43.540;-5.510;2022-08-21T17:27:17;3.45;;;2.50;;
72479;SDS011;60503;43.540;-5.510;2022-08-21T17:29:44;5.35;;;2.80;;
72479;SDS011;60503;43.540;-5.510;2022-08-21T17:32:10;3.58;;;2.30;;
72479;SDS011;60503;43.540;-5.510;2022-08-21T17:34:37;7.13;;;2.70;;
72479;SDS011;60503;43.540;-5.510;2022-08-21T17:37:03;7.10;;;2.78;;
72479;SDS011;60503;43.540;-5.510;2022-08-21T17:39:30;5.05;;;2.60;;
72479;SDS011;60503;43.540;-5.510;2022-08-21T17:41:55;6.80;;;2.95;;
72479;SDS011;60503;43.540;-5.510;2022-08-21T17:44:24;5.47;;;2.72;;
72479;SDS011;60503;43.540;-5.510;2022-08-21T17:46:50;6.63;;;3.13;;
72479;SDS011;60503;43.540;-5.510;2022-08-21T17:49:15;6.55;;;2.90;;
72479;SDS011;60503;43.540;-5.510;2022-08-21T17:51:41;3.45;;;2.72;;
72479;SDS011;60503;43.540;-5.510;2022-08-21T17:54:07;5.75;;;3.10;;
72479;SDS011;60503;43.540;-5.510;2022-08-21T17:56:33;4.72;;;2.88;;
72479;SDS011;60503;43.540;-5.510;2022-08-21T17:59:00;5.30;;;2.95;;
72479;SDS011;60503;43.540;-5.510;2022-08-21T18:01:28;6.05;;;2.90;;
72479;SDS011;60503;43.540;-5.510;2022-08-21T18:03:57;5.65;;;2.88;;
72479;SDS011;60503;43.540;-5.510;2022-08-21T18:06:23;6.60;;;3.03;;
72479;SDS011;60503;43.540;-5.510;2022-08-21T18:08:49;6.75;;;3.17;;
72479;SDS011;60503;43.540;-5.510;2022-08-21T18:11:16;7.72;;;3.55;;
72479;SDS011;60503;43.540;-5.510;2022-08-21T18:13:42;13.75;;;4.05;;
72479;SDS011;60503;43.540;-5.510;2022-08-21T18:16:07;13.10;;;3.42;;
72479;SDS011;60503;43.540;-5.510;2022-08-21T18:18:40;9.27;;;2.90;;
72479;SDS011;60503;43.540;-5.510;2022-08-21T18:21:07;7.68;;;2.60;;
72479;SDS011;60503;43.540;-5.510;2022-08-21T18:23:33;7.75;;;2.30;;
72479;SDS011;60503;43.540;-5.510;2022-08-21T18:25:59;7.78;;;2.70;;
72479;SDS011;60503;43.540;-5.510;2022-08-21T18:28:24;11.13;;;2.50;;
72479;SDS011;60503;43.540;-5.510;2022-08-21T18:30:50;13.65;;;3.03;;
72479;SDS011;60503;43.540;-5.510;2022-08-21T18:33:18;6.78;;;2.50;;
72479;SDS011;60503;43.540;-5.510;2022-08-21T18:35:44;9.93;;;2.38;;
72479;SDS011;60503;43.540;-5.510;2022-08-21T18:38:09;7.45;;;1.67;;
72479;SDS011;60503;43.540;-5.510;2022-08-21T18:40:36;9.75;;;2.40;;
72479;SDS011;60503;43.540;-5.510;2022-08-21T18:43:05;5.68;;;1.67;;
72479;SDS011;60503;43.540;-5.510;2022-08-21T18:45:33;4.93;;;1.88;;
72479;SDS011;60503;43.540;-5.510;2022-08-21T18:48:05;3.45;;;1.40;;
72479;SDS011;60503;43.540;-5.510;2022-08-21T18:50:32;4.20;;;1.65;;
72479;SDS011;60503;43.540;-5.510;2022-08-21T18:52:58;7.38;;;1.80;;
72479;SDS011;60503;43.540;-5.510;2022-08-21T18:55:24;4.22;;;1.42;;
72479;SDS011;60503;43.540;-5.510;2022-08-21T18:57:51;5.15;;;1.70;;
72479;SDS011;60503;43.540;-5.510;2022-08-21T19:00:19;4.22;;;1.50;;
72479;SDS011;60503;43.540;-5.510;2022-08-21T19:02:47;4.33;;;1.50;;
72479;SDS011;60503;43.540;-5.510;2022-08-21T19:05:14;7.95;;;1.83;;
72479;SDS011;60503;43.540;-5.510;2022-08-21T19:07:40;5.57;;;1.73;;
72479;SDS011;60503;43.540;-5.510;2022-08-21T19:10:08;4.60;;;1.60;;
72479;SDS011;60503;43.540;-5.510;2022-08-21T19:12:34;4.13;;;1.90;;
72479;SDS011;60503;43.540;-5.510;2022-08-21T19:15:01;3.95;;;1.80;;
72479;SDS011;60503;43.540;-5.510;2022-08-21T19:17:26;3.85;;;1.45;;
72479;SDS011;60503;43.540;-5.510;2022-08-21T19:19:53;4.22;;;1.92;;
72479;SDS011;60503;43.540;-5.510;2022-08-21T19:22:20;7.72;;;2.10;;
72479;SDS011;60503;43.540;-5.510;2022-08-21T19:24:46;7.15;;;1.98;;
72479;SDS011;60503;43.540;-5.510;2022-08-21T19:27:11;6.88;;;2.10;;
72479;SDS011;60503;43.540;-5.510;2022-08-21T19:29:38;5.10;;;1.85;;
72479;SDS011;60503;43.540;-5.510;2022-08-21T19:32:05;6.93;;;1.77;;
72479;SDS011;60503;43.540;-5.510;2022-08-21T19:34:31;7.13;;;2.55;;
72479;SDS011;60503;43.540;-5.510;2022-08-21T19:36:58;7.72;;;2.35;;
72479;SDS011;60503;43.540;-5.510;2022-08-21T19:39:25;5.28;;;1.95;;
72479;SDS011;60503;43.540;-5.510;2022-08-21T19:41:53;8.85;;;2.55;;
72479;SDS011;60503;43.540;-5.510;2022-08-21T19:44:21;7.53;;;2.13;;
72479;SDS011;60503;43.540;-5.510;2022-08-21T19:46:49;7.78;;;2.25;;
72479;SDS011;60503;43.540;-5.510;2022-08-21T19:49:18;5.25;;;1.83;;
72479;SDS011;60503;43.540;-5.510;2022-08-21T19:51:45;6.93;;;2.00;;
72479;SDS011;60503;43.540;-5.510;2022-08-21T19:54:44;5.28;;;1.92;;
72479;SDS011;60503;43.540;-5.510;2022-08-21T19:57:04;7.32;;;2.45;;
72479;SDS011;60503;43.540;-5.510;2022-08-21T19:59:31;7.57;;;2.15;;
72479;SDS011;60503;43.540;-5.510;2022-08-21T20:01:58;5.63;;;1.80;;
72479;SDS011;60503;43.540;-5.510;2022-08-21T20:04:26;5.85;;;2.20;;
72479;SDS011;60503;43.540;-5.510;2022-08-21T20:06:52;3.72;;;1.63;;
72479;SDS011;60503;43.540;-5.510;2022-08-21T20:09:18;4.30;;;1.95;;
72479;SDS011;60503;43.540;-5.510;2022-08-21T20:11:45;6.97;;;2.00;;
72479;SDS011;60503;43.540;-5.510;2022-08-21T20:14:13;8.48;;;1.95;;
72479;SDS011;60503;43.540;-5.510;2022-08-21T20:16:41;8.50;;;2.22;;
72479;SDS011;60503;43.540;-5.510;2022-08-21T20:19:07;5.97;;;2.00;;
72479;SDS011;60503;43.540;-5.510;2022-08-21T20:21:34;9.63;;;2.75;;
72479;SDS011;60503;43.540;-5.510;2022-08-21T20:24:00;6.57;;;2.85;;
72479;SDS011;60503;43.540;-5.510;2022-08-21T20:26:26;7.90;;;3.22;;
72479;SDS011;60503;43.540;-5.510;2022-08-21T20:28:55;6.65;;;3.00;;
72479;SDS011;60503;43.540;-5.510;2022-08-21T20:31:21;7.03;;;2.90;;
72479;SDS011;60503;43.540;-5.510;2022-08-21T20:33:48;7.53;;;3.13;;
72479;SDS011;60503;43.540;-5.510;2022-08-21T20:36:15;9.80;;;3.67;;
72479;SDS011;60503;43.540;-5.510;2022-08-21T20:38:41;6.47;;;3.00;;
72479;SDS011;60503;43.540;-5.510;2022-08-21T20:41:10;7.65;;;3.15;;
72479;SDS011;60503;43.540;-5.510;2022-08-21T20:43:39;7.13;;;2.83;;
72479;SDS011;60503;43.540;-5.510;2022-08-21T20:46:13;8.32;;;3.10;;
72479;SDS011;60503;43.540;-5.510;2022-08-21T20:48:43;4.22;;;2.78;;
72479;SDS011;60503;43.540;-5.510;2022-08-21T20:54:06;8.50;;;2.92;;
72479;SDS011;60503;43.540;-5.510;2022-08-21T20:59:54;5.32;;;3.15;;
72479;SDS011;60503;43.540;-5.510;2022-08-21T21:05:16;7.13;;;3.30;;
72479;SDS011;60503;43.540;-5.510;2022-08-21T21:15:55;6.97;;;2.90;;
72479;SDS011;60503;43.540;-5.510;2022-08-21T21:18:25;8.80;;;3.80;;
72479;SDS011;60503;43.540;-5.510;2022-08-21T21:21:04;11.38;;;3.47;;
72479;SDS011;60503;43.540;-5.510;2022-08-21T21:23:43;5.05;;;3.15;;
72479;SDS011;60503;43.540;-5.510;2022-08-21T21:26:26;7.10;;;3.43;;
72479;SDS011;60503;43.540;-5.510;2022-08-21T21:32:41;6.03;;;3.13;;
72479;SDS011;60503;43.540;-5.510;2022-08-21T21:35:11;5.50;;;3.75;;
72479;SDS011;60503;43.540;-5.510;2022-08-21T21:37:51;8.73;;;3.65;;
72479;SDS011;60503;43.540;-5.510;2022-08-21T21:46:09;9.30;;;3.97;;
72479;SDS011;60503;43.540;-5.510;2022-08-21T21:48:48;7.40;;;3.35;;
72479;SDS011;60503;43.540;-5.510;2022-08-21T21:59:25;4.45;;;2.35;;
72479;SDS011;60503;43.540;-5.510;2022-08-21T22:09:59;5.15;;;2.25;;
72479;SDS011;60503;43.540;-5.510;2022-08-21T22:12:49;6.03;;;2.20;;
72479;SDS011;60503;43.540;-5.510;2022-08-21T22:15:20;6.50;;;2.70;;
72479;SDS011;60503;43.540;-5.510;2022-08-21T22:17:50;5.70;;;2.25;;
72479;SDS011;60503;43.540;-5.510;2022-08-21T22:23:02;10.90;;;4.18;;
72479;SDS011;60503;43.540;-5.510;2022-08-21T22:25:34;8.83;;;3.83;;
72479;SDS011;60503;43.540;-5.510;2022-08-21T22:28:07;13.10;;;3.53;;
72479;SDS011;60503;43.540;-5.510;2022-08-21T22:30:36;13.15;;;4.32;;
72479;SDS011;60503;43.540;-5.510;2022-08-21T22:33:07;9.40;;;4.20;;
72479;SDS011;60503;43.540;-5.510;2022-08-21T22:35:46;7.95;;;4.18;;
72479;SDS011;60503;43.540;-5.510;2022-08-21T22:46:25;7.43;;;3.42;;
72479;SDS011;60503;43.540;-5.510;2022-08-21T22:49:02;10.60;;;3.30;;
72479;SDS011;60503;43.540;-5.510;2022-08-21T22:51:39;8.38;;;3.65;;
72479;SDS011;60503;43.540;-5.510;2022-08-21T22:54:11;8.93;;;3.40;;
72479;SDS011;60503;43.540;-5.510;2022-08-21T22:56:54;6.72;;;2.90;;
72479;SDS011;60503;43.540;-5.510;2022-08-21T22:59:27;11.48;;;4.03;;
72479;SDS011;60503;43.540;-5.510;2022-08-21T23:01:59;14.20;;;4.18;;
72479;SDS011;60503;43.540;-5.510;2022-08-21T23:04:43;7.57;;;3.70;;
72479;SDS011;60503;43.540;-5.510;2022-08-21T23:10:01;8.15;;;4.00;;
72479;SDS011;60503;43.540;-5.510;2022-08-21T23:12:29;8.32;;;3.67;;
72479;SDS011;60503;43.540;-5.510;2022-08-21T23:15:09;8.27;;;3.63;;
72479;SDS011;60503;43.540;-5.510;2022-08-21T23:26:01;8.52;;;3.10;;
72479;SDS011;60503;43.540;-5.510;2022-08-21T23:37:22;7.07;;;2.75;;
72479;SDS011;60503;43.540;-5.510;2022-08-21T23:43:02;7.30;;;2.17;;
72479;SDS011;60503;43.540;-5.510;2022-08-21T23:51:45;5.68;;;2.20;;
